This is the latest recevied weather packets stored in our database for station/object LY3FF-10. If no packets are shown the sender has not sent any weather packets the latest 10 day(s).
| Time | Temp. | Humidity | Pressure | Rain* | Wind** | Luminosity | Snow |
|---|---|---|---|---|---|---|---|
| 1788019180 | 18.33° C | 67% | 993.5 hPa | - | - | - | - |
| 1788018280 | 18.89° C | 65% | 993.5 hPa | - | - | - | - |
| 1788017525 | 19.44° C | 64% | 993.5 hPa | - | - | - | - |
| 1788016662 | 20° C | 60% | 993.5 hPa | - | - | - | - |
| 1788015820 | 21.67° C | 56% | 993.3 hPa | - | - | - | - |
| 1788014990 | 22.78° C | 52% | 992.9 hPa | - | - | - | - |
| 1788014240 | 23.33° C | 51% | 992.7 hPa | - | - | - | - |
| 1788013500 | 23.33° C | 50% | 992.6 hPa | - | - | - | - |
| 1788012750 | 23.89° C | 50% | 992.7 hPa | - | - | - | - |
| 1788011975 | 25° C | 49% | 992.9 hPa | - | - | - | - |
| 1788011204 | 24.44° C | 49% | 992.8 hPa | - | - | - | - |
| 1788010364 | 23.89° C | 49% | 992.9 hPa | - | - | - | - |
| 1788009645 | 23.33° C | 49% | 993 hPa | - | - | - | - |
| 1788008890 | 23.89° C | 49% | 993.1 hPa | - | - | - | - |
| 1788008090 | 23.89° C | 49% | 993 hPa | - | - | - | - |
| 1788007234 | 29.44° C | 49% | 993.1 hPa | - | - | - | - |
| 1788006340 | 30.56° C | 48% | 993.1 hPa | - | - | - | - |
| 1788005473 | 25° C | 48% | 993.2 hPa | - | - | - | - |
| 1788004690 | 24.44° C | 49% | 993.3 hPa | - | - | - | - |
| 1788003864 | 34.44° C | 49% | 993.2 hPa | - | - | - | - |
| 1788003140 | 35.56° C | 50% | 993.5 hPa | - | - | - | - |
| 1788002264 | 36.11° C | 49% | 993.5 hPa | - | - | - | - |
| 1788001510 | 34.44° C | 51% | 993.8 hPa | - | - | - | - |
| 1788000635 | 31.67° C | 51% | 994 hPa | - | - | - | - |
| 1787999825 | 23.89° C | 50% | 994 hPa | - | - | - | - |
* Rain since midnight (hover to see other rain measurements)
** Current wind speed in m/s (hover to see current wind gust speed)